Time;durP1;ratioP1;P1;durP2;ratioP2;P2;SDS_P1;SDS_P2;PMS_P1;PMS_P2;Temp;Humidity;BMP_temperature;BMP_pressure;BME280_temperature;BME280_humidity;BME280_pressure;Samples;Min_cycle;Max_cycle;Signal;HPM_P1;HPM_P2
2023/05/24 00:01:15;;;;;;;18.73;5.03;;;7.80;99.90;;;;;;5066899;28;20403;-61
2023/05/24 00:03:41;;;;;;;22.23;4.20;;;7.80;99.90;;;;;;5068618;28;20037;-61
2023/05/24 00:06:07;;;;;;;21.92;5.00;;;7.90;99.90;;;;;;5068418;28;20032;-62
2023/05/24 00:08:33;;;;;;;16.80;5.13;;;7.90;99.90;;;;;;5069578;28;20036;-61
2023/05/24 00:10:59;;;;;;;19.88;5.28;;;7.90;99.90;;;;;;5068757;28;20171;-62
2023/05/24 00:13:25;;;;;;;16.70;4.15;;;7.80;99.90;;;;;;5052420;28;20376;-63
2023/05/24 00:15:51;;;;;;;16.45;4.32;;;7.90;99.90;;;;;;5069387;28;20086;-63
2023/05/24 00:18:17;;;;;;;17.73;4.53;;;7.90;99.90;;;;;;5069080;28;20045;-63
2023/05/24 00:20:43;;;;;;;19.98;4.65;;;7.90;99.90;;;;;;5069894;28;20153;-63
2023/05/24 00:23:09;;;;;;;15.80;4.82;;;7.90;99.90;;;;;;5070178;28;20529;-63
2023/05/24 00:25:35;;;;;;;16.25;4.68;;;7.90;99.90;;;;;;5068668;28;20043;-59
2023/05/24 00:28:01;;;;;;;16.15;4.18;;;7.90;99.90;;;;;;5068579;28;20075;-61
2023/05/24 00:30:26;;;;;;;24.45;5.07;;;7.90;99.90;;;;;;5068795;28;20456;-60
2023/05/24 00:32:52;;;;;;;24.10;5.93;;;7.90;99.90;;;;;;5068616;28;20040;-60
2023/05/24 00:35:18;;;;;;;16.92;4.47;;;8.00;99.90;;;;;;5068859;28;20082;-62
2023/05/24 00:37:44;;;;;;;18.35;4.35;;;7.90;99.90;;;;;;5069721;28;20037;-64
2023/05/24 00:40:13;;;;;;;19.38;4.72;;;8.00;99.90;;;;;;5069722;28;20098;-63
2023/05/24 00:42:38;;;;;;;16.80;4.60;;;8.00;99.90;;;;;;5051677;28;20123;-61
2023/05/24 00:45:05;;;;;;;20.83;5.00;;;8.00;99.90;;;;;;5069925;28;20123;-62
2023/05/24 00:47:32;;;;;;;19.75;4.20;;;8.00;99.90;;;;;;5069826;28;20542;-63
2023/05/24 00:49:57;;;;;;;15.15;3.70;;;8.00;99.90;;;;;;5035198;28;20132;-61
2023/05/24 00:52:23;;;;;;;16.83;5.53;;;8.00;99.90;;;;;;5069848;28;20119;-62
2023/05/24 00:54:49;;;;;;;15.63;4.65;;;8.00;99.90;;;;;;5068070;28;20455;-60
2023/05/24 00:57:17;;;;;;;19.58;5.20;;;8.00;99.90;;;;;;5069440;28;20037;-64
2023/05/24 00:59:44;;;;;;;22.65;5.13;;;8.00;99.90;;;;;;5068458;28;20162;-61
2023/05/24 01:02:10;;;;;;;15.82;4.55;;;8.00;99.90;;;;;;5069742;28;20041;-63
2023/05/24 01:04:36;;;;;;;19.63;5.55;;;8.00;99.90;;;;;;5068287;28;20464;-62
2023/05/24 01:07:13;;;;;;;27.25;5.50;;;8.00;99.90;;;;;;5051432;28;20047;-62
2023/05/24 01:09:52;;;;;;;16.52;5.00;;;8.00;99.90;;;;;;5068079;28;20461;-63
2023/05/24 01:12:26;;;;;;;18.58;4.43;;;8.00;99.90;;;;;;5068274;28;20048;-62
2023/05/24 01:14:57;;;;;;;21.13;4.85;;;8.00;99.90;;;;;;5051500;28;20040;-63
2023/05/24 01:17:36;;;;;;;20.73;4.70;;;8.00;99.90;;;;;;5069550;28;20425;-60
2023/05/24 01:20:12;;;;;;;21.88;4.80;;;8.00;99.90;;;;;;5068065;28;20033;-62
2023/05/24 01:23:16;;;;;;;14.48;4.28;;;8.10;99.90;;;;;;5068092;28;20044;-61
2023/05/24 01:26:00;;;;;;;19.45;5.25;;;8.00;99.90;;;;;;5068064;28;20032;-61
2023/05/24 01:28:26;;;;;;;29.08;5.07;;;8.10;99.90;;;;;;5069423;28;20094;-63
2023/05/24 01:30:54;;;;;;;27.70;6.13;;;8.10;99.90;;;;;;5068388;28;20484;-61
2023/05/24 01:33:20;;;;;;;17.90;4.68;;;8.10;99.90;;;;;;5072051;28;20035;-63
2023/05/24 01:35:46;;;;;;;16.85;4.75;;;8.10;99.90;;;;;;5073466;28;20029;-62
2023/05/24 01:38:11;;;;;;;18.95;4.80;;;8.10;99.90;;;;;;5071605;28;20292;-62
2023/05/24 01:40:39;;;;;;;19.77;5.10;;;8.10;99.90;;;;;;5072052;28;20106;-62
2023/05/24 01:43:15;;;;;;;22.50;5.25;;;8.10;99.90;;;;;;5071739;28;20048;-61
2023/05/24 01:46:12;;;;;;;17.88;4.68;;;8.10;99.90;;;;;;5073249;28;20387;-61
2023/05/24 01:48:57;;;;;;;19.23;4.90;;;8.00;99.90;;;;;;5050595;28;20106;-63
2023/05/24 01:51:25;;;;;;;18.85;5.00;;;8.00;99.90;;;;;;5050527;28;20041;-62
2023/05/24 01:53:52;;;;;;;22.30;6.10;;;8.00;99.90;;;;;;5050695;28;20087;-61
2023/05/24 01:56:19;;;;;;;17.52;4.70;;;8.00;99.90;;;;;;5033800;28;20041;-60
2023/05/24 01:58:46;;;;;;;20.70;4.95;;;7.90;99.90;;;;;;5033836;28;20067;-62
2023/05/24 02:01:12;;;;;;;17.50;4.40;;;7.90;99.90;;;;;;5050650;28;20077;-61
2023/05/24 02:03:39;;;;;;;15.43;4.32;;;7.90;99.90;;;;;;5050449;28;20037;-63
2023/05/24 02:06:05;;;;;;;19.90;5.80;;;7.90;99.90;;;;;;5050402;28;20061;-62
2023/05/24 02:08:31;;;;;;;19.25;4.90;;;7.80;99.90;;;;;;5017039;28;20045;-63
2023/05/24 02:10:57;;;;;;;19.90;5.05;;;7.80;99.90;;;;;;5034020;28;20037;-63
2023/05/24 02:13:22;;;;;;;21.40;4.82;;;7.80;99.90;;;;;;5050183;28;20053;-63
2023/05/24 02:15:48;;;;;;;25.60;5.70;;;7.80;99.90;;;;;;5016738;28;20064;-62
2023/05/24 02:18:17;;;;;;;18.00;4.78;;;7.80;99.90;;;;;;5033347;28;20033;-61
2023/05/24 02:20:43;;;;;;;17.88;4.95;;;7.80;99.90;;;;;;5050043;28;20056;-60
2023/05/24 02:23:08;;;;;;;19.02;5.15;;;7.80;99.90;;;;;;5033376;28;20041;-64
2023/05/24 02:25:34;;;;;;;18.88;5.00;;;7.70;99.90;;;;;;5049576;28;20473;-60
2023/05/24 02:28:00;;;;;;;20.52;5.32;;;7.70;99.90;;;;;;5072820;28;20036;-64
2023/05/24 02:30:26;;;;;;;16.08;5.25;;;7.70;99.90;;;;;;5072621;28;20040;-62
2023/05/24 02:32:52;;;;;;;15.50;4.55;;;7.70;99.90;;;;;;5071005;28;20070;-63
2023/05/24 02:35:18;;;;;;;14.93;4.05;;;7.70;99.90;;;;;;5070955;28;20048;-65
2023/05/24 02:37:44;;;;;;;16.73;4.30;;;7.60;99.90;;;;;;5070549;28;20115;-63
2023/05/24 02:40:10;;;;;;;13.68;4.22;;;7.60;99.90;;;;;;5070705;28;20056;-63
2023/05/24 02:42:35;;;;;;;14.55;4.32;;;7.60;99.90;;;;;;5070825;28;20481;-62
2023/05/24 02:45:01;;;;;;;18.55;4.25;;;7.50;99.90;;;;;;5071954;28;20078;-62
2023/05/24 02:47:27;;;;;;;15.35;3.97;;;7.50;99.90;;;;;;5070552;28;20036;-61
2023/05/24 02:49:53;;;;;;;14.23;4.07;;;7.50;99.90;;;;;;5071847;28;20487;-61
2023/05/24 02:52:22;;;;;;;16.33;4.13;;;7.40;99.90;;;;;;5070669;28;20429;-64
2023/05/24 02:54:48;;;;;;;12.05;3.95;;;7.40;99.90;;;;;;5071879;28;20036;-61
2023/05/24 02:57:15;;;;;;;11.07;3.78;;;7.40;99.90;;;;;;5070514;28;20040;-64
2023/05/24 02:59:41;;;;;;;17.88;5.60;;;7.30;99.90;;;;;;5070862;28;20045;-63
2023/05/24 03:02:06;;;;;;;15.40;4.38;;;7.30;99.90;;;;;;5070181;28;20040;-60
2023/05/24 03:04:32;;;;;;;18.02;4.10;;;7.30;99.90;;;;;;5071906;28;20090;-62
2023/05/24 03:06:58;;;;;;;16.77;4.00;;;7.20;99.90;;;;;;5053836;28;20056;-63
2023/05/24 03:09:23;;;;;;;12.18;4.07;;;7.20;99.90;;;;;;5070290;28;20483;-61
2023/05/24 03:11:50;;;;;;;11.75;4.55;;;7.20;99.90;;;;;;5071444;28;20032;-60
2023/05/24 03:14:16;;;;;;;16.60;5.10;;;7.20;99.90;;;;;;5070275;28;20403;-61
2023/05/24 03:16:41;;;;;;;12.73;3.70;;;7.20;99.90;;;;;;5069976;28;20545;-62
2023/05/24 03:19:07;;;;;;;14.63;4.68;;;7.20;99.90;;;;;;5070048;28;20051;-62
2023/05/24 03:21:33;;;;;;;14.63;4.50;;;7.20;99.90;;;;;;5071600;28;20048;-60
2023/05/24 03:23:58;;;;;;;12.07;3.83;;;7.10;99.90;;;;;;5070122;28;20060;-63
2023/05/24 03:26:25;;;;;;;13.05;3.95;;;7.10;99.90;;;;;;5071364;28;20102;-61
2023/05/24 03:28:53;;;;;;;12.73;4.13;;;7.10;99.90;;;;;;5068723;28;20055;-62
2023/05/24 03:31:19;;;;;;;11.98;3.97;;;7.10;99.90;;;;;;5069810;28;20051;-64
2023/05/24 03:33:45;;;;;;;14.73;3.85;;;7.10;99.90;;;;;;5069793;28;20041;-61
2023/05/24 03:36:11;;;;;;;13.48;3.72;;;7.10;99.90;;;;;;5069512;28;20127;-63
2023/05/24 03:38:36;;;;;;;15.48;3.90;;;7.10;99.90;;;;;;5069477;28;20430;-62
2023/05/24 03:41:02;;;;;;;17.60;3.83;;;7.10;99.90;;;;;;5071053;28;20522;-61
2023/05/24 03:43:28;;;;;;;13.70;4.88;;;7.10;99.90;;;;;;5069814;28;20538;-63
2023/05/24 03:45:53;;;;;;;14.63;4.18;;;7.10;99.90;;;;;;5070820;28;20040;-64
2023/05/24 03:48:19;;;;;;;14.27;4.13;;;7.10;99.90;;;;;;5069344;28;20414;-60
2023/05/24 03:50:46;;;;;;;15.75;3.83;;;7.10;99.90;;;;;;5069418;28;20040;-63
2023/05/24 03:53:11;;;;;;;11.45;4.03;;;7.10;99.90;;;;;;5069527;28;20411;-63
2023/05/24 03:55:37;;;;;;;13.43;3.78;;;7.10;99.90;;;;;;5070224;28;20041;-62
2023/05/24 03:58:03;;;;;;;14.55;3.90;;;7.10;99.90;;;;;;5070657;28;20041;-64
2023/05/24 04:00:28;;;;;;;23.30;4.60;;;7.10;99.90;;;;;;5069105;28;20032;-63
2023/05/24 04:02:54;;;;;;;19.40;4.53;;;7.10;99.90;;;;;;5070530;28;20502;-62
2023/05/24 04:05:20;;;;;;;18.60;5.07;;;7.20;99.90;;;;;;5070517;28;20058;-61
2023/05/24 04:07:46;;;;;;;19.25;5.15;;;7.20;99.90;;;;;;5070570;28;20078;-62
2023/05/24 04:10:12;;;;;;;16.45;4.57;;;7.20;99.90;;;;;;5070483;28;20487;-62
2023/05/24 04:12:39;;;;;;;14.57;4.55;;;7.30;99.90;;;;;;5068904;28;20072;-61
2023/05/24 04:15:06;;;;;;;19.10;4.78;;;7.30;99.90;;;;;;5069700;28;20036;-61
2023/05/24 04:17:33;;;;;;;17.05;4.18;;;7.30;99.90;;;;;;5069124;28;20040;-59
2023/05/24 04:20:00;;;;;;;16.33;4.75;;;7.40;99.90;;;;;;5068126;28;20474;-61
2023/05/24 04:22:25;;;;;;;22.08;4.78;;;7.40;99.90;;;;;;5068994;28;20028;-65
2023/05/24 04:24:51;;;;;;;16.02;5.50;;;7.30;99.90;;;;;;5068052;28;20074;-63
2023/05/24 04:27:17;;;;;;;22.45;5.75;;;7.40;99.90;;;;;;5068149;28;20044;-61
2023/05/24 04:29:48;;;;;;;16.45;5.15;;;7.40;99.90;;;;;;5069483;28;20044;-61
2023/05/24 04:32:14;;;;;;;23.27;5.35;;;7.50;99.90;;;;;;5068660;28;20143;-63
2023/05/24 04:34:41;;;;;;;20.00;4.82;;;7.50;99.90;;;;;;5068783;28;20181;-63
2023/05/24 04:37:07;;;;;;;22.92;4.97;;;7.50;99.90;;;;;;5067684;28;20052;-61
2023/05/24 04:39:33;;;;;;;21.38;4.53;;;7.50;99.90;;;;;;5068713;28;20392;-61
2023/05/24 04:41:59;;;;;;;18.52;4.70;;;7.50;99.90;;;;;;5069198;28;20043;-62
2023/05/24 04:44:25;;;;;;;15.52;4.65;;;7.50;99.90;;;;;;5067784;28;20549;-63
2023/05/24 04:46:50;;;;;;;17.52;4.28;;;7.50;99.90;;;;;;5067385;28;20139;-61
2023/05/24 04:49:16;;;;;;;24.17;5.00;;;7.50;99.90;;;;;;5067640;28;20113;-62
2023/05/24 04:51:42;;;;;;;23.80;5.35;;;7.60;99.90;;;;;;5067409;28;20121;-61
2023/05/24 04:54:08;;;;;;;22.75;5.18;;;7.60;99.90;;;;;;5067648;28;20052;-62
2023/05/24 04:56:34;;;;;;;24.15;5.47;;;7.60;99.90;;;;;;5067289;28;20402;-61
2023/05/24 04:59:00;;;;;;;18.45;4.57;;;7.60;99.90;;;;;;5068692;28;20545;-61
2023/05/24 05:01:26;;;;;;;17.73;4.63;;;7.60;99.90;;;;;;5069208;28;20032;-60
2023/05/24 05:03:52;;;;;;;19.98;4.95;;;7.70;99.90;;;;;;5068127;28;20063;-63
2023/05/24 05:06:18;;;;;;;20.15;4.80;;;7.70;99.90;;;;;;5067728;28;20036;-63
2023/05/24 05:08:43;;;;;;;21.73;5.38;;;7.70;99.90;;;;;;5067485;28;20033;-61
2023/05/24 05:11:09;;;;;;;20.52;5.15;;;7.70;99.90;;;;;;5068273;28;20387;-64
2023/05/24 05:13:34;;;;;;;18.77;4.68;;;7.80;99.90;;;;;;5067419;28;20044;-62
2023/05/24 05:16:01;;;;;;;16.90;4.80;;;7.80;99.90;;;;;;5067086;28;20033;-63
2023/05/24 05:18:27;;;;;;;20.92;4.75;;;7.80;99.90;;;;;;5067183;28;20110;-59
2023/05/24 05:20:52;;;;;;;17.65;4.07;;;7.90;99.90;;;;;;5068580;28;20041;-63
2023/05/24 05:23:18;;;;;;;16.35;3.92;;;7.90;99.90;;;;;;5067748;28;20078;-61
2023/05/24 05:25:43;;;;;;;19.23;4.82;;;7.90;99.90;;;;;;5068652;28;20032;-61
2023/05/24 05:28:09;;;;;;;21.67;4.65;;;8.00;99.90;;;;;;5067921;28;20032;-63
2023/05/24 05:30:35;;;;;;;17.30;4.53;;;8.00;99.90;;;;;;5066891;28;20037;-61
2023/05/24 05:33:00;;;;;;;17.40;4.13;;;8.10;99.90;;;;;;5067437;28;20515;-63
2023/05/24 05:35:26;;;;;;;17.75;4.43;;;8.10;99.90;;;;;;5068210;28;20048;-62
2023/05/24 05:37:51;;;;;;;20.40;5.05;;;8.20;99.90;;;;;;5067696;28;20050;-61
2023/05/24 05:40:17;;;;;;;20.08;4.50;;;8.20;99.90;;;;;;5067032;28;20049;-63
2023/05/24 05:42:43;;;;;;;22.58;4.72;;;8.30;99.90;;;;;;5066478;28;20055;-61
2023/05/24 05:45:09;;;;;;;24.40;4.32;;;8.30;99.90;;;;;;5068456;28;20112;-60
2023/05/24 05:47:35;;;;;;;18.20;4.10;;;8.40;99.90;;;;;;5068257;28;20049;-61
2023/05/24 05:50:00;;;;;;;22.02;6.15;;;8.50;99.90;;;;;;5066932;28;20059;-62
2023/05/24 05:52:26;;;;;;;18.70;5.13;;;8.60;99.90;;;;;;5068398;28;20042;-61
2023/05/24 05:54:53;;;;;;;23.75;4.90;;;8.70;99.90;;;;;;5066688;28;20036;-62
2023/05/24 05:57:22;;;;;;;18.52;4.45;;;8.80;99.90;;;;;;5067917;28;20041;-61
2023/05/24 05:59:49;;;;;;;19.73;4.07;;;8.90;99.90;;;;;;5066552;28;20437;-60
2023/05/24 06:02:14;;;;;;;18.83;5.13;;;9.00;99.90;;;;;;5068089;28;20082;-61
2023/05/24 06:04:40;;;;;;;21.35;4.30;;;9.10;99.90;;;;;;5068440;28;20032;-64
2023/05/24 06:07:06;;;;;;;17.05;4.60;;;9.20;99.90;;;;;;5050917;28;20049;-62
2023/05/24 06:09:31;;;;;;;19.75;4.30;;;9.30;99.90;;;;;;5067966;28;20036;-60
2023/05/24 06:11:57;;;;;;;15.25;4.00;;;9.30;99.90;;;;;;5067549;28;20036;-63
2023/05/24 06:14:23;;;;;;;18.83;3.95;;;9.40;99.90;;;;;;5069332;28;20044;-62
2023/05/24 06:16:53;;;;;;;18.48;4.13;;;9.50;99.90;;;;;;5066106;28;20052;-62
2023/05/24 06:19:19;;;;;;;18.20;4.50;;;9.50;99.90;;;;;;5068948;28;20043;-61
2023/05/24 06:21:46;;;;;;;22.40;4.68;;;9.60;99.90;;;;;;5069938;28;20037;-63
2023/05/24 06:24:20;;;;;;;21.67;4.00;;;9.70;99.90;;;;;;5070127;28;20051;-62
2023/05/24 06:26:51;;;;;;;19.23;3.95;;;9.70;99.90;;;;;;5071133;28;20068;-60
2023/05/24 06:29:20;;;;;;;21.40;5.75;;;9.80;99.90;;;;;;5070692;28;20055;-62
2023/05/24 06:31:49;;;;;;;16.23;4.15;;;9.90;99.90;;;;;;5053407;28;20055;-65
2023/05/24 06:34:16;;;;;;;17.90;4.47;;;9.90;99.90;;;;;;5071435;28;20032;-61
2023/05/24 06:36:42;;;;;;;16.20;3.95;;;10.00;99.90;;;;;;5053982;28;20041;-61
2023/05/24 06:39:09;;;;;;;20.15;3.75;;;10.10;99.90;;;;;;5070578;28;20499;-63
2023/05/24 06:41:36;;;;;;;22.20;3.88;;;10.20;99.90;;;;;;5070624;28;20097;-63
2023/05/24 06:44:02;;;;;;;19.83;3.83;;;10.20;99.90;;;;;;5070920;28;20544;-64
2023/05/24 06:46:27;;;;;;;14.40;4.07;;;10.30;99.90;;;;;;5070495;28;20373;-61
2023/05/24 06:48:53;;;;;;;20.33;4.47;;;10.50;99.90;;;;;;5070879;28;20418;-63
2023/05/24 06:51:18;;;;;;;19.05;3.90;;;10.60;99.90;;;;;;5069617;28;20044;-60
2023/05/24 06:53:44;;;;;;;16.77;3.63;;;10.80;99.90;;;;;;5071085;28;20028;-61
2023/05/24 06:56:10;;;;;;;18.10;4.13;;;10.90;99.90;;;;;;5070936;28;20056;-63
2023/05/24 06:58:35;;;;;;;19.13;4.18;;;11.00;99.90;;;;;;5069557;28;20051;-62
2023/05/24 07:01:03;;;;;;;19.63;3.78;;;11.20;99.90;;;;;;5070558;28;20090;-62
2023/05/24 07:03:32;;;;;;;16.23;4.60;;;11.30;99.90;;;;;;5070842;28;20487;-62
2023/05/24 07:05:58;;;;;;;14.55;3.70;;;11.60;99.90;;;;;;5071713;28;20395;-62
2023/05/24 07:08:26;;;;;;;17.02;3.67;;;11.70;99.90;;;;;;5071219;28;20047;-62
2023/05/24 07:10:52;;;;;;;15.88;3.50;;;11.80;99.90;;;;;;5069967;28;20060;-61
2023/05/24 07:13:18;;;;;;;19.63;4.18;;;11.90;99.90;;;;;;5070871;28;20040;-63
2023/05/24 07:15:45;;;;;;;16.27;3.70;;;11.90;99.90;;;;;;5069406;28;20688;-61
2023/05/24 07:18:11;;;;;;;16.27;3.60;;;12.00;99.90;;;;;;5069603;28;20440;-62
2023/05/24 07:20:37;;;;;;;13.20;3.60;;;12.20;99.90;;;;;;5070705;28;20052;-62
2023/05/24 07:23:03;;;;;;;17.10;4.30;;;12.40;99.90;;;;;;5069410;28;20561;-63
2023/05/24 07:25:30;;;;;;;16.98;3.63;;;12.60;99.90;;;;;;5070724;28;20040;-64
2023/05/24 07:27:55;;;;;;;16.98;3.78;;;12.90;99.90;;;;;;5069169;28;20052;-64
2023/05/24 07:30:21;;;;;;;16.00;4.60;;;13.00;99.90;;;;;;5067886;28;20381;-62
2023/05/24 07:32:47;;;;;;;15.63;3.83;;;13.00;99.90;;;;;;5068940;28;20048;-61
2023/05/24 07:35:12;;;;;;;14.20;3.38;;;13.00;99.90;;;;;;5069111;28;20036;-61
2023/05/24 07:37:39;;;;;;;13.23;3.60;;;13.00;99.90;;;;;;5052369;28;20062;-61
2023/05/24 07:40:09;;;;;;;14.38;3.20;;;12.90;99.90;;;;;;5068637;28;20053;-61
2023/05/24 07:42:35;;;;;;;11.35;3.60;;;12.80;99.90;;;;;;5052917;28;20044;-62
2023/05/24 07:45:01;;;;;;;15.18;3.33;;;12.70;99.90;;;;;;5068662;28;20036;-63
2023/05/24 07:47:27;;;;;;;14.68;3.47;;;12.60;99.90;;;;;;5068787;28;20049;-62
2023/05/24 07:49:52;;;;;;;18.20;4.13;;;12.50;99.90;;;;;;5068412;28;20052;-62
2023/05/24 07:52:19;;;;;;;15.35;3.53;;;12.40;99.90;;;;;;5070615;28;20045;-64
2023/05/24 07:54:45;;;;;;;11.18;2.97;;;12.30;99.90;;;;;;5069436;28;20048;-63
2023/05/24 07:57:11;;;;;;;16.00;3.63;;;12.40;99.90;;;;;;5070402;28;20119;-63
2023/05/24 07:59:37;;;;;;;14.18;3.25;;;12.40;99.90;;;;;;5069191;28;20404;-63
2023/05/24 08:02:04;;;;;;;13.45;4.28;;;12.60;99.90;;;;;;5069987;28;20033;-62
2023/05/24 08:04:32;;;;;;;11.30;3.28;;;12.80;99.90;;;;;;5069363;28;20459;-63
2023/05/24 08:07:00;;;;;;;14.10;3.25;;;13.30;99.90;;;;;;5068277;28;20059;-63
2023/05/24 08:09:26;;;;;;;12.68;2.90;;;13.50;99.90;;;;;;5068228;28;20048;-62
2023/05/24 08:11:52;;;;;;;18.83;3.50;;;13.60;99.90;;;;;;5069719;28;20028;-63
2023/05/24 08:14:18;;;;;;;13.77;3.42;;;13.80;99.90;;;;;;5068078;28;20049;-62
2023/05/24 08:16:43;;;;;;;13.13;2.70;;;13.80;99.90;;;;;;5068169;28;20132;-63
2023/05/24 08:19:09;;;;;;;15.70;3.25;;;13.80;99.90;;;;;;5069373;28;20048;-63
2023/05/24 08:21:36;;;;;;;13.43;3.08;;;13.80;99.90;;;;;;5067832;28;20040;-63
2023/05/24 08:24:02;;;;;;;10.27;2.55;;;13.70;99.90;;;;;;5068280;28;20033;-63
2023/05/24 08:26:27;;;;;;;13.70;3.13;;;13.70;99.90;;;;;;5068983;28;20029;-61
2023/05/24 08:28:53;;;;;;;20.92;3.30;;;13.60;99.90;;;;;;5069129;28;20059;-63
2023/05/24 08:31:20;;;;;;;14.18;3.67;;;13.60;99.90;;;;;;5067568;28;20045;-62
2023/05/24 08:33:49;;;;;;;12.68;3.00;;;13.50;99.90;;;;;;5068866;28;20039;-61
2023/05/24 08:36:15;;;;;;;9.13;2.67;;;13.30;99.90;;;;;;5068118;28;20032;-63
2023/05/24 08:38:41;;;;;;;13.57;2.97;;;13.30;99.90;;;;;;5067594;28;20072;-63
2023/05/24 08:41:09;;;;;;;11.30;3.22;;;13.30;99.90;;;;;;5068991;28;20117;-62
2023/05/24 08:43:36;;;;;;;11.77;2.85;;;13.50;99.90;;;;;;5051355;28;20041;-63
2023/05/24 08:46:03;;;;;;;10.55;2.88;;;13.50;99.90;;;;;;5068629;28;20048;-61
2023/05/24 08:48:30;;;;;;;14.82;2.60;;;13.50;99.90;;;;;;5067903;28;20502;-61
2023/05/24 08:50:56;;;;;;;11.73;2.65;;;13.60;99.90;;;;;;5067401;28;20040;-62
2023/05/24 08:53:23;;;;;;;11.43;3.03;;;13.50;99.90;;;;;;5068907;28;20037;-62
2023/05/24 08:55:52;;;;;;;13.75;2.83;;;13.60;99.90;;;;;;5067531;28;21383;-63
2023/05/24 08:58:18;;;;;;;12.18;2.70;;;13.70;99.90;;;;;;5067402;28;20151;-63
2023/05/24 09:00:44;;;;;;;13.73;2.80;;;13.90;99.90;;;;;;5068302;28;20047;-63
2023/05/24 09:03:11;;;;;;;12.43;2.50;;;13.90;99.90;;;;;;5068824;28;20116;-63
2023/05/24 09:05:39;;;;;;;8.15;2.58;;;13.90;99.90;;;;;;5069108;28;20039;-64
2023/05/24 09:08:05;;;;;;;10.80;2.65;;;13.90;99.90;;;;;;5068550;28;20090;-60
2023/05/24 09:10:32;;;;;;;12.23;3.50;;;13.80;99.90;;;;;;5066995;28;20102;-62
2023/05/24 09:13:01;;;;;;;10.15;2.47;;;13.90;99.90;;;;;;5068256;28;20052;-62
2023/05/24 09:15:27;;;;;;;10.27;2.42;;;14.40;99.90;;;;;;5068476;28;20048;-63
2023/05/24 09:17:52;;;;;;;9.40;2.83;;;14.90;99.90;;;;;;5068750;28;20049;-62
2023/05/24 09:20:19;;;;;;;10.57;2.42;;;15.20;99.90;;;;;;5067296;28;20047;-63
2023/05/24 09:22:50;;;;;;;7.75;2.30;;;15.00;99.90;;;;;;5067792;28;20036;-65
2023/05/24 09:25:17;;;;;;;10.45;2.90;;;14.80;99.90;;;;;;5069232;28;20074;-61
2023/05/24 09:27:51;;;;;;;11.00;2.97;;;14.70;99.90;;;;;;5068466;28;20451;-63
2023/05/24 09:30:17;;;;;;;13.43;2.78;;;14.80;99.90;;;;;;5068039;28;20455;-61
2023/05/24 09:32:59;;;;;;;9.85;2.67;;;14.90;99.90;;;;;;5068474;28;20398;-62
2023/05/24 09:35:26;;;;;;;12.95;3.35;;;14.70;99.90;;;;;;5067103;28;20063;-64
2023/05/24 09:37:59;;;;;;;9.73;2.50;;;14.60;99.90;;;;;;5067183;28;20445;-63
2023/05/24 09:40:26;;;;;;;10.38;2.50;;;14.40;99.90;;;;;;5066365;28;20053;-60
2023/05/24 09:43:08;;;;;;;13.38;2.88;;;14.30;99.90;;;;;;5067032;28;20127;-65
2023/05/24 09:45:45;;;;;;;13.15;4.20;;;14.20;99.90;;;;;;5068214;28;20054;-61
2023/05/24 09:48:16;;;;;;;14.40;3.30;;;14.50;99.90;;;;;;5067186;28;20162;-63
2023/05/24 09:50:44;;;;;;;9.07;3.08;;;14.70;99.90;;;;;;5066536;28;20083;-61
2023/05/24 09:53:10;;;;;;;12.77;2.97;;;15.10;99.90;;;;;;5051558;28;20049;-65
2023/05/24 09:55:37;;;;;;;11.82;3.20;;;15.70;99.90;;;;;;5072173;28;20028;-61
2023/05/24 09:58:02;;;;;;;14.70;2.63;;;15.90;99.90;;;;;;5072292;28;20047;-61
2023/05/24 10:00:29;;;;;;;11.38;2.50;;;16.00;99.90;;;;;;5071816;28;20119;-65
2023/05/24 10:03:06;;;;;;;11.45;2.92;;;16.00;99.90;;;;;;5053906;28;20047;-62
2023/05/24 10:05:32;;;;;;;11.85;3.10;;;16.40;99.90;;;;;;5071798;28;20044;-61
2023/05/24 10:07:59;;;;;;;10.57;2.63;;;16.80;99.90;;;;;;5071944;28;20043;-63
2023/05/24 10:10:30;;;;;;;12.23;3.13;;;16.90;99.90;;;;;;5070836;28;20479;-62
2023/05/24 10:12:57;;;;;;;8.85;2.30;;;17.00;99.90;;;;;;5070759;28;20131;-64
2023/05/24 10:15:24;;;;;;;9.07;2.55;;;17.50;99.90;;;;;;5070435;28;20048;-63
2023/05/24 10:17:51;;;;;;;6.30;2.17;;;17.20;99.90;;;;;;5070102;28;20110;-63
2023/05/24 10:20:17;;;;;;;10.38;2.65;;;16.80;99.90;;;;;;5071498;28;20147;-61
2023/05/24 10:22:44;;;;;;;7.47;2.42;;;16.80;99.90;;;;;;5071440;28;20442;-63
2023/05/24 10:25:16;;;;;;;10.40;2.25;;;16.70;99.90;;;;;;5071946;28;20032;-63
2023/05/24 10:27:44;;;;;;;7.80;3.03;;;16.70;99.90;;;;;;5070434;28;20129;-63
2023/05/24 10:30:50;;;;;;;8.48;2.30;;;17.00;99.90;;;;;;5069961;28;20045;-64
2023/05/24 10:33:17;;;;;;;8.57;2.60;;;17.10;99.90;;;;;;5070119;28;20040;-62
2023/05/24 10:35:43;;;;;;;7.13;2.30;;;17.10;99.90;;;;;;5071234;28;20106;-64
2023/05/24 10:38:09;;;;;;;10.48;2.85;;;17.10;99.90;;;;;;5071939;28;20043;-63
2023/05/24 10:40:43;;;;;;;5.95;2.38;;;17.40;99.90;;;;;;5068225;28;20415;-65
2023/05/24 10:43:09;;;;;;;8.77;2.60;;;17.70;99.90;;;;;;5071678;28;20063;-62
2023/05/24 10:45:39;;;;;;;8.07;2.40;;;17.70;99.90;;;;;;5071174;28;20090;-63
2023/05/24 10:48:28;;;;;;;6.80;2.17;;;17.30;99.50;;;;;;5069696;28;20106;-63
2023/05/24 10:50:54;;;;;;;6.53;2.20;;;17.10;99.70;;;;;;5070670;28;20037;-62
2023/05/24 10:53:22;;;;;;;7.05;2.45;;;16.90;98.30;;;;;;5070836;28;20068;-62
2023/05/24 10:55:58;;;;;;;12.68;2.20;;;17.10;99.90;;;;;;5069780;28;20041;-64
2023/05/24 10:58:42;;;;;;;8.93;2.60;;;17.10;99.90;;;;;;5069974;28;20493;-63
2023/05/24 11:01:28;;;;;;;6.53;2.40;;;16.90;99.60;;;;;;5069810;28;20387;-65
2023/05/24 11:04:14;;;;;;;6.10;2.70;;;16.80;99.50;;;;;;5069377;28;20044;-63
2023/05/24 11:07:03;;;;;;;11.52;2.70;;;16.70;99.60;;;;;;5071579;28;20471;-63
2023/05/24 11:09:30;;;;;;;7.95;2.20;;;16.80;99.50;;;;;;5069510;28;20544;-61
2023/05/24 11:12:06;;;;;;;9.18;2.38;;;16.80;99.80;;;;;;5070999;28;20068;-62
2023/05/24 11:14:39;;;;;;;8.55;2.63;;;16.60;99.20;;;;;;5070447;28;20044;-62
2023/05/24 11:17:06;;;;;;;7.70;2.28;;;16.20;99.00;;;;;;5069179;28;20496;-63
2023/05/24 11:19:37;;;;;;;7.32;2.40;;;16.00;99.20;;;;;;5069826;28;20483;-63
2023/05/24 11:22:05;;;;;;;7.88;2.63;;;16.10;99.90;;;;;;5069518;28;20047;-62
2023/05/24 11:24:32;;;;;;;7.32;2.00;;;16.10;99.90;;;;;;5068903;28;20090;-64
2023/05/24 11:26:59;;;;;;;7.97;2.28;;;16.00;99.90;;;;;;5070534;28;20043;-61
2023/05/24 11:29:24;;;;;;;4.93;1.80;;;16.20;99.90;;;;;;5070510;28;20058;-62
2023/05/24 11:31:52;;;;;;;7.28;2.05;;;16.60;99.90;;;;;;5068822;28;20036;-63
2023/05/24 11:34:19;;;;;;;6.68;2.10;;;17.00;99.90;;;;;;5070019;28;20492;-62
2023/05/24 11:36:46;;;;;;;7.63;2.08;;;17.10;99.10;;;;;;5069099;28;20048;-62
2023/05/24 11:39:13;;;;;;;6.13;1.90;;;16.80;98.20;;;;;;5069731;28;20099;-62
2023/05/24 11:41:39;;;;;;;7.15;1.90;;;16.40;97.80;;;;;;5070182;28;20115;-63
2023/05/24 11:44:07;;;;;;;6.55;1.65;;;16.10;98.10;;;;;;5069829;28;20059;-61
2023/05/24 11:46:33;;;;;;;6.43;2.08;;;15.90;98.20;;;;;;5070623;28;20067;-64
2023/05/24 11:48:59;;;;;;;7.40;1.70;;;15.90;98.80;;;;;;5068316;28;20060;-61
2023/05/24 11:51:29;;;;;;;7.32;1.95;;;16.00;99.30;;;;;;5068507;28;20032;-61
2023/05/24 11:53:59;;;;;;;6.50;1.73;;;15.90;98.40;;;;;;5069950;28;20041;-64
2023/05/24 11:56:26;;;;;;;8.38;2.05;;;15.80;98.70;;;;;;5068441;28;20044;-63
2023/05/24 11:59:02;;;;;;;6.10;2.08;;;15.70;98.90;;;;;;5068234;28;20044;-63
2023/05/24 12:01:28;;;;;;;3.97;1.80;;;15.80;99.30;;;;;;5068714;28;20062;-64
2023/05/24 12:03:54;;;;;;;4.82;1.73;;;16.10;99.70;;;;;;5069603;28;20040;-62
2023/05/24 12:06:20;;;;;;;5.35;2.03;;;16.10;98.90;;;;;;5068748;28;20055;-65
2023/05/24 12:08:47;;;;;;;5.35;2.00;;;16.00;98.40;;;;;;5069507;28;20111;-65
2023/05/24 12:11:13;;;;;;;7.28;2.10;;;15.90;98.50;;;;;;5067891;28;20173;-65
2023/05/24 12:13:39;;;;;;;7.63;1.90;;;15.70;98.80;;;;;;5068619;28;20040;-63
2023/05/24 12:16:06;;;;;;;7.47;2.08;;;15.50;98.90;;;;;;5067749;28;20047;-64
2023/05/24 12:18:32;;;;;;;8.48;2.33;;;15.50;99.50;;;;;;5069252;28;20480;-62
2023/05/24 12:20:57;;;;;;;6.13;2.20;;;15.50;99.50;;;;;;5067954;28;20395;-63
2023/05/24 12:23:30;;;;;;;6.30;2.20;;;15.50;99.90;;;;;;5068100;28;20028;-62
2023/05/24 12:26:00;;;;;;;9.20;1.95;;;15.70;99.90;;;;;;5069894;28;20090;-63
2023/05/24 12:28:26;;;;;;;8.20;2.30;;;15.80;99.60;;;;;;5070094;28;20039;-63
2023/05/24 12:30:52;;;;;;;6.07;2.13;;;15.70;99.40;;;;;;5068107;28;20415;-62
2023/05/24 12:33:18;;;;;;;7.20;2.30;;;15.50;99.70;;;;;;5067773;28;20057;-60
2023/05/24 12:35:46;;;;;;;8.75;2.30;;;15.30;99.90;;;;;;5067773;28;20109;-61
2023/05/24 12:38:11;;;;;;;6.93;2.15;;;15.10;99.90;;;;;;5067575;28;20066;-64
2023/05/24 12:40:40;;;;;;;9.98;2.10;;;14.90;99.90;;;;;;5068705;28;20491;-62
2023/05/24 12:43:06;;;;;;;8.25;2.33;;;14.70;99.90;;;;;;5069185;28;20094;-63
2023/05/24 12:45:31;;;;;;;10.57;2.58;;;14.60;99.90;;;;;;5068727;28;20442;-63